createdAt,value
2017-06-18T00:00:56.403Z,6.50
2017-06-18T00:03:23.951Z,7.77
2017-06-18T00:05:52.247Z,7.30
2017-06-18T00:08:19.786Z,5.80
2017-06-18T00:10:48.071Z,5.60
2017-06-18T00:13:16.391Z,5.63
2017-06-18T00:15:44.679Z,5.10
2017-06-18T00:18:12.989Z,4.80
2017-06-18T00:20:40.510Z,5.03
2017-06-18T00:23:08.803Z,5.40
2017-06-18T00:25:36.346Z,5.37
2017-06-18T00:28:04.638Z,6.37
2017-06-18T00:30:32.950Z,6.67
2017-06-18T00:33:00.475Z,5.30
2017-06-18T00:35:28.783Z,4.30
2017-06-18T00:37:56.304Z,5.80
2017-06-18T00:40:23.859Z,5.40
2017-06-18T00:42:52.147Z,6.57
2017-06-18T00:45:19.691Z,7.40
2017-06-18T00:47:47.234Z,7.80
2017-06-18T00:50:14.762Z,6.37
2017-06-18T00:52:42.299Z,6.47
2017-06-18T00:55:09.824Z,7.37
2017-06-18T00:57:37.384Z,7.60
2017-06-18T01:00:04.906Z,6.27
2017-06-18T01:02:32.431Z,5.70
2017-06-18T01:04:59.975Z,5.77
2017-06-18T01:07:27.498Z,5.97
2017-06-18T01:09:55.042Z,6.50
2017-06-18T01:12:23.331Z,5.83
2017-06-18T01:14:50.884Z,6.30
2017-06-18T01:17:18.406Z,6.60
2017-06-18T01:19:45.956Z,7.00
2017-06-18T01:22:14.243Z,6.20
2017-06-18T01:24:41.774Z,6.10
2017-06-18T01:27:09.316Z,6.90
2017-06-18T01:29:36.852Z,5.70
2017-06-18T01:32:04.393Z,5.17
2017-06-18T01:34:31.918Z,4.80
2017-06-18T01:37:00.223Z,5.03
2017-06-18T01:39:27.746Z,3.80
2017-06-18T01:41:55.315Z,4.67
2017-06-18T01:44:23.603Z,3.90
2017-06-18T01:46:51.124Z,4.07
2017-06-18T01:49:18.674Z,3.53
2017-06-18T01:51:46.208Z,5.20
2017-06-18T01:54:13.752Z,5.70
2017-06-18T01:56:41.276Z,6.43
2017-06-18T01:59:08.835Z,6.83
2017-06-18T02:01:37.127Z,7.50
2017-06-18T02:04:04.651Z,7.03
2017-06-18T02:06:32.196Z,6.40
2017-06-18T02:08:59.720Z,5.30
2017-06-18T02:11:28.030Z,5.03
2017-06-18T02:13:55.559Z,5.17
2017-06-18T02:16:23.107Z,4.10
2017-06-18T02:18:51.395Z,4.73
2017-06-18T02:21:18.941Z,5.37
2017-06-18T02:23:47.230Z,5.17
2017-06-18T02:26:14.789Z,6.27
2017-06-18T02:28:42.316Z,6.70
2017-06-18T02:31:10.600Z,7.20
2017-06-18T02:33:38.143Z,6.77
2017-06-18T02:36:05.672Z,7.20
2017-06-18T02:38:33.218Z,6.03
2017-06-18T02:41:00.743Z,5.70
2017-06-18T02:43:28.282Z,5.13
2017-06-18T02:45:55.808Z,6.63
2017-06-18T02:48:23.364Z,6.00
2017-06-18T02:50:50.888Z,4.83
2017-06-18T02:53:18.410Z,5.17
2017-06-18T02:55:46.720Z,5.43
2017-06-18T02:58:15.012Z,4.30
2017-06-18T03:00:42.555Z,3.57
2017-06-18T03:03:10.842Z,4.97
2017-06-18T03:05:38.398Z,4.57
2017-06-18T03:08:05.921Z,5.17
2017-06-18T03:10:33.443Z,4.90
2017-06-18T03:13:00.992Z,4.00
2017-06-18T03:15:28.520Z,4.50
2017-06-18T03:17:56.064Z,3.67
2017-06-18T03:20:24.354Z,6.27
2017-06-18T03:23:08.740Z,4.17
2017-06-18T03:25:36.262Z,3.93
2017-06-18T03:28:03.802Z,3.80
2017-06-18T03:30:31.330Z,5.07
2017-06-18T03:32:59.634Z,6.53
2017-06-18T03:35:27.158Z,6.90
2017-06-18T03:37:54.871Z,7.70
2017-06-18T03:40:22.390Z,6.83
2017-06-18T03:42:49.912Z,6.60
2017-06-18T03:45:17.450Z,5.67
2017-06-18T03:47:44.977Z,5.47
2017-06-18T03:50:12.555Z,4.93
2017-06-18T03:52:40.075Z,6.10
2017-06-18T03:55:07.614Z,6.40
2017-06-18T03:57:35.134Z,6.67
2017-06-18T04:00:02.678Z,6.93
2017-06-18T04:02:30.195Z,6.10
2017-06-18T04:04:57.756Z,6.13
2017-06-18T04:07:26.045Z,6.20
2017-06-18T04:09:53.565Z,6.53
2017-06-18T04:12:21.113Z,5.10
2017-06-18T04:14:48.638Z,6.00
2017-06-18T04:17:16.178Z,6.43
2017-06-18T04:19:43.700Z,4.60
2017-06-18T04:22:11.243Z,4.50
2017-06-18T04:24:38.763Z,4.60
2017-06-18T04:27:06.316Z,5.10
2017-06-18T04:29:33.834Z,4.30
2017-06-18T04:32:02.118Z,4.57
2017-06-18T04:34:29.655Z,5.00
2017-06-18T04:36:57.940Z,4.60
2017-06-18T04:39:26.238Z,5.70
2017-06-18T04:41:53.757Z,6.80
2017-06-18T04:44:21.295Z,5.53
2017-06-18T04:46:48.819Z,5.80
2017-06-18T04:49:16.363Z,5.40
2017-06-18T04:51:43.879Z,6.30
2017-06-18T04:54:11.418Z,6.50
2017-06-18T04:56:38.942Z,5.93
2017-06-18T04:59:06.464Z,6.73
2017-06-18T05:01:34.775Z,6.73
2017-06-18T05:04:02.296Z,6.90
2017-06-18T05:06:29.843Z,7.30
2017-06-18T05:08:57.358Z,7.83
2017-06-18T05:11:25.658Z,8.67
2017-06-18T05:13:53.179Z,8.40
2017-06-18T05:16:20.722Z,7.40
2017-06-18T05:18:48.242Z,6.83
2017-06-18T05:21:15.798Z,6.73
2017-06-18T05:23:43.314Z,8.10
2017-06-18T05:26:10.834Z,7.87
2017-06-18T05:28:38.370Z,7.43
2017-06-18T05:31:05.895Z,7.73
2017-06-18T05:33:34.198Z,7.70
2017-06-18T05:36:01.722Z,7.43
2017-06-18T05:38:29.258Z,7.67
2017-06-18T05:40:56.775Z,7.90
2017-06-18T05:43:24.330Z,7.20
2017-06-18T05:45:51.854Z,8.90
2017-06-18T05:48:20.142Z,8.90
2017-06-18T05:50:47.690Z,7.70
2017-06-18T05:53:15.220Z,7.03
2017-06-18T05:55:42.762Z,8.80
2017-06-18T05:58:11.053Z,8.63
2017-06-18T06:00:39.358Z,8.63
2017-06-18T06:03:06.876Z,6.97
2017-06-18T06:05:34.431Z,7.40
2017-06-18T06:08:01.950Z,8.40
2017-06-18T06:10:29.475Z,9.67
2017-06-18T06:12:57.015Z,8.20
2017-06-18T06:15:24.538Z,8.33
2017-06-18T06:17:52.083Z,7.57
2017-06-18T06:20:19.608Z,8.17
2017-06-18T06:22:47.150Z,8.03
2017-06-18T06:25:14.674Z,8.33
2017-06-18T06:27:43.028Z,6.50
2017-06-18T06:30:10.551Z,6.60
2017-06-18T06:32:38.106Z,7.10
2017-06-18T06:35:05.618Z,6.70
2017-06-18T06:37:33.143Z,5.90
2017-06-18T06:40:00.685Z,6.70
2017-06-18T06:42:28.202Z,7.10
2017-06-18T06:44:56.519Z,7.47
2017-06-18T06:47:24.038Z,7.20
2017-06-18T06:49:51.579Z,5.80
2017-06-18T06:52:19.867Z,5.27
2017-06-18T06:54:47.409Z,5.70
2017-06-18T06:57:14.949Z,5.10
2017-06-18T06:59:42.502Z,4.87
2017-06-18T07:02:10.027Z,5.70
2017-06-18T07:04:37.554Z,5.20
2017-06-18T07:07:05.101Z,5.77
2017-06-18T07:09:32.622Z,5.80
2017-06-18T07:12:00.162Z,5.03
2017-06-18T07:14:27.679Z,6.10
2017-06-18T07:17:31.510Z,5.93
2017-06-18T07:19:59.034Z,6.13
2017-06-18T07:22:26.566Z,5.07
2017-06-18T07:24:54.103Z,5.63
2017-06-18T07:27:21.625Z,5.20
2017-06-18T07:29:49.934Z,4.97
2017-06-18T07:32:17.460Z,5.07
2017-06-18T07:34:45.770Z,4.93
2017-06-18T07:37:13.290Z,4.60
2017-06-18T07:39:40.846Z,3.97
2017-06-18T07:42:10.522Z,3.67
2017-06-18T07:44:38.899Z,3.87
2017-06-18T07:47:07.399Z,3.03
2017-06-18T07:49:34.921Z,3.00
2017-06-18T07:52:02.463Z,3.03
2017-06-18T07:54:29.986Z,2.87
2017-06-18T07:56:58.071Z,2.87
2017-06-18T07:59:26.362Z,3.10
2017-06-18T08:01:54.679Z,3.10
2017-06-18T08:04:22.207Z,2.63
2017-06-18T08:06:49.728Z,2.30
2017-06-18T08:09:17.271Z,3.70
2017-06-18T08:11:44.786Z,3.30
2017-06-18T08:14:12.330Z,2.27
2017-06-18T08:16:39.856Z,2.53
2017-06-18T08:19:07.397Z,2.93
2017-06-18T08:21:34.923Z,2.03
2017-06-18T08:24:02.503Z,2.50
2017-06-18T08:26:30.023Z,3.00
2017-06-18T08:28:57.567Z,2.20
2017-06-18T08:31:25.846Z,2.77
2017-06-18T08:33:54.166Z,3.03
2017-06-18T08:36:21.683Z,2.20
2017-06-18T08:38:49.197Z,2.83
2017-06-18T08:41:17.506Z,2.53
2017-06-18T08:43:45.027Z,2.70
2017-06-18T08:46:12.566Z,3.60
2017-06-18T08:48:40.854Z,3.20
2017-06-18T08:51:08.406Z,2.90
2017-06-18T08:53:35.926Z,2.90
2017-06-18T08:56:04.211Z,3.30
2017-06-18T08:58:31.751Z,3.23
2017-06-18T09:00:59.270Z,2.60
2017-06-18T09:03:26.806Z,2.90
2017-06-18T09:05:54.332Z,2.43
2017-06-18T09:08:21.879Z,2.50
2017-06-18T09:10:49.403Z,2.30
2017-06-18T09:13:16.943Z,3.00
2017-06-18T09:15:44.464Z,2.73
2017-06-18T09:18:12.019Z,2.70
2017-06-18T09:20:39.542Z,2.20
2017-06-18T09:23:07.058Z,2.50
2017-06-18T09:25:34.603Z,2.33
2017-06-18T09:28:02.122Z,2.60
2017-06-18T09:30:29.663Z,2.67
2017-06-18T09:32:57.957Z,2.00
2017-06-18T09:35:25.503Z,2.30
2017-06-18T09:37:53.024Z,2.63
2017-06-18T09:40:20.591Z,2.13
2017-06-18T09:42:48.109Z,2.70
2017-06-18T09:45:16.399Z,2.40
2017-06-18T09:47:43.940Z,2.50
2017-06-18T09:50:11.463Z,2.00
2017-06-18T09:52:39.006Z,2.57
2017-06-18T09:55:07.296Z,1.97
2017-06-18T09:57:34.839Z,2.00
2017-06-18T10:00:03.132Z,2.20
2017-06-18T10:02:31.459Z,2.20
2017-06-18T10:04:58.986Z,2.37
2017-06-18T10:07:26.505Z,1.57
2017-06-18T10:09:54.046Z,2.63
2017-06-18T10:12:21.567Z,2.00
2017-06-18T10:14:49.142Z,2.30
2017-06-18T10:17:16.663Z,2.50
2017-06-18T10:19:44.204Z,2.43
2017-06-18T10:22:13.630Z,2.43
2017-06-18T10:24:41.167Z,2.20
2017-06-18T10:27:08.691Z,2.43
2017-06-18T10:29:36.994Z,2.17
2017-06-18T10:32:04.518Z,2.03
2017-06-18T10:34:32.074Z,2.00
2017-06-18T10:37:00.359Z,1.90
2017-06-18T10:39:27.883Z,2.40
2017-06-18T10:41:56.199Z,1.63
2017-06-18T10:44:24.490Z,1.53
2017-06-18T10:46:52.030Z,1.63
2017-06-18T10:49:20.319Z,2.20
2017-06-18T10:51:47.875Z,2.00
2017-06-18T10:54:16.158Z,2.03
2017-06-18T10:56:43.682Z,2.33
2017-06-18T10:59:11.228Z,2.10
2017-06-18T11:01:38.750Z,2.00
2017-06-18T11:04:06.291Z,2.33
2017-06-18T11:06:34.575Z,1.30
2017-06-18T11:09:02.883Z,2.00
2017-06-18T11:11:30.408Z,2.00
2017-06-18T11:13:57.930Z,1.70
2017-06-18T11:16:25.486Z,1.40
2017-06-18T11:18:53.012Z,1.73
2017-06-18T11:21:20.554Z,2.30
2017-06-18T11:23:48.071Z,1.83
2017-06-18T11:26:15.614Z,1.40
2017-06-18T11:28:43.138Z,1.47
2017-06-18T11:31:11.431Z,1.43
2017-06-18T11:36:13.476Z,1.53
2017-06-18T11:38:41.786Z,1.50
2017-06-18T11:41:09.309Z,1.47
2017-06-18T11:43:37.614Z,1.80
2017-06-18T11:46:05.138Z,1.50
2017-06-18T11:48:33.467Z,1.63
2017-06-18T11:51:01.000Z,1.67
2017-06-18T11:53:29.282Z,1.70
2017-06-18T11:55:57.592Z,1.33
2017-06-18T11:58:25.883Z,1.70
2017-06-18T12:00:53.431Z,1.50
2017-06-18T12:03:21.722Z,1.50
2017-06-18T12:05:49.259Z,1.80
2017-06-18T12:08:16.783Z,1.80
2017-06-18T12:10:45.091Z,1.83
2017-06-18T12:13:13.383Z,1.87
2017-06-18T12:15:40.936Z,1.33
2017-06-18T12:18:08.464Z,1.57
2017-06-18T12:20:35.987Z,1.60
2017-06-18T12:23:03.535Z,1.43
2017-06-18T12:25:31.062Z,1.63
2017-06-18T12:27:58.613Z,1.60
2017-06-18T12:30:26.905Z,2.00
2017-06-18T12:32:55.251Z,1.40
2017-06-18T12:35:22.775Z,1.80
2017-06-18T12:37:50.298Z,1.50
2017-06-18T12:40:18.607Z,1.57
2017-06-18T12:42:46.122Z,1.60
2017-06-18T12:45:13.667Z,1.53
2017-06-18T12:47:41.955Z,1.77
2017-06-18T12:50:09.507Z,1.83
2017-06-18T12:52:37.027Z,1.70
2017-06-18T12:55:04.548Z,1.67
2017-06-18T12:57:32.286Z,1.60
2017-06-18T13:00:00.570Z,1.50
2017-06-18T13:02:28.107Z,1.23
2017-06-18T13:04:56.395Z,1.67
2017-06-18T13:07:24.715Z,1.33
2017-06-18T13:09:52.999Z,1.60
2017-06-18T13:12:20.522Z,1.87
2017-06-18T13:14:48.067Z,1.50
2017-06-18T13:17:15.595Z,1.70
2017-06-18T13:19:43.138Z,1.50
2017-06-18T13:22:10.664Z,1.77
2017-06-18T13:24:38.206Z,1.83
2017-06-18T13:27:05.722Z,1.83
2017-06-18T13:29:33.274Z,2.10
2017-06-18T13:32:00.798Z,1.90
2017-06-18T13:34:28.326Z,1.93
2017-06-18T13:36:55.866Z,1.77
2017-06-18T13:39:23.383Z,1.90
2017-06-18T13:41:50.931Z,1.87
2017-06-18T13:44:18.458Z,2.10
2017-06-18T13:46:46.002Z,1.90
2017-06-18T13:49:13.527Z,1.50
2017-06-18T13:51:41.086Z,1.70
2017-06-18T13:54:08.611Z,1.70
2017-06-18T13:56:36.901Z,1.57
2017-06-18T13:59:05.207Z,1.60
2017-06-18T14:01:33.495Z,1.70
2017-06-18T14:04:01.809Z,1.60
2017-06-18T14:06:29.334Z,1.57
2017-06-18T14:08:57.644Z,1.97
2017-06-18T14:11:25.169Z,2.07
2017-06-18T14:13:52.767Z,2.40
2017-06-18T14:16:20.290Z,1.63
2017-06-18T14:18:47.815Z,2.07
2017-06-18T14:21:16.122Z,2.10
2017-06-18T14:23:43.643Z,1.63
2017-06-18T14:26:11.947Z,1.73
2017-06-18T14:28:39.471Z,1.90
2017-06-18T14:31:07.795Z,1.87
2017-06-18T14:33:35.321Z,1.63
2017-06-18T14:36:02.843Z,1.73
2017-06-18T14:38:30.394Z,1.60
2017-06-18T14:40:57.918Z,1.50
2017-06-18T14:43:25.462Z,1.80
2017-06-18T14:45:52.986Z,2.00
2017-06-18T14:48:20.532Z,2.00
2017-06-18T14:50:48.056Z,1.40
2017-06-18T14:53:15.611Z,1.80
2017-06-18T14:55:43.141Z,1.70
2017-06-18T14:58:10.662Z,1.87
2017-06-18T15:00:38.203Z,1.40
2017-06-18T15:03:05.727Z,1.43
2017-06-18T15:05:34.040Z,2.17
2017-06-18T15:08:01.567Z,1.57
2017-06-18T15:10:29.106Z,2.10
2017-06-18T15:12:56.627Z,1.87
2017-06-18T15:15:24.189Z,1.77
2017-06-18T15:17:51.719Z,1.77
2017-06-18T15:20:20.007Z,1.50
2017-06-18T15:22:47.550Z,1.60
2017-06-18T15:25:15.071Z,1.80
2017-06-18T15:27:42.606Z,1.43
2017-06-18T15:30:10.897Z,2.07
2017-06-18T15:32:38.438Z,1.77
2017-06-18T15:35:05.959Z,1.73
2017-06-18T15:37:33.516Z,1.33
2017-06-18T15:40:01.041Z,1.60
2017-06-18T15:42:28.561Z,1.47
2017-06-18T15:44:56.105Z,2.00
2017-06-18T15:47:23.631Z,1.50
2017-06-18T15:49:51.170Z,1.60
2017-06-18T15:52:18.686Z,1.47
2017-06-18T15:54:46.227Z,2.00
2017-06-18T15:57:13.768Z,1.73
2017-06-18T15:59:41.321Z,2.00
2017-06-18T16:02:08.842Z,1.83
2017-06-18T16:04:36.362Z,1.87
2017-06-18T16:07:03.901Z,1.60
2017-06-18T16:09:31.423Z,2.20
2017-06-18T16:11:58.962Z,1.83
2017-06-18T16:14:26.491Z,2.40
2017-06-18T16:16:54.034Z,2.10
2017-06-18T16:19:21.562Z,2.10
2017-06-18T16:21:49.123Z,1.60
2017-06-18T16:24:16.647Z,2.20
2017-06-18T16:26:44.170Z,1.70
2017-06-18T16:29:11.714Z,2.00
2017-06-18T16:31:39.233Z,2.00
2017-06-18T16:34:06.774Z,1.93
2017-06-18T16:36:34.290Z,1.70
2017-06-18T16:39:01.834Z,2.20
2017-06-18T16:41:29.359Z,2.30
2017-06-18T16:43:56.919Z,2.07
2017-06-18T16:46:24.446Z,2.40
2017-06-18T16:48:51.972Z,2.30
2017-06-18T16:51:19.512Z,2.00
2017-06-18T16:53:47.031Z,2.07
2017-06-18T16:56:14.577Z,1.83
2017-06-18T16:58:42.099Z,2.63
2017-06-18T17:01:09.635Z,1.60
2017-06-18T17:03:37.149Z,2.37
2017-06-18T17:06:04.692Z,2.10
2017-06-18T17:08:32.215Z,2.23
2017-06-18T17:10:59.772Z,2.27
2017-06-18T17:13:27.294Z,1.90
2017-06-18T17:15:54.818Z,2.00
2017-06-18T17:18:22.358Z,2.10
2017-06-18T17:20:50.648Z,2.40
2017-06-18T17:23:18.192Z,2.13
2017-06-18T17:25:45.720Z,1.80
2017-06-18T17:28:14.030Z,1.83
2017-06-18T17:30:41.554Z,2.20
2017-06-18T17:33:09.074Z,2.20
2017-06-18T17:35:36.614Z,2.10
2017-06-18T17:38:04.139Z,2.43
2017-06-18T17:40:31.682Z,2.27
2017-06-18T17:42:59.202Z,1.93
2017-06-18T17:45:27.515Z,2.10
2017-06-18T17:47:55.036Z,2.57
2017-06-18T17:50:22.579Z,1.77
2017-06-18T17:52:50.118Z,2.07
2017-06-18T17:55:17.648Z,2.20
2017-06-18T17:57:45.195Z,2.07
2017-06-18T18:00:12.718Z,2.30
2017-06-18T18:02:40.257Z,1.80
2017-06-18T18:05:07.782Z,2.63
2017-06-18T18:07:36.108Z,1.97
2017-06-18T18:10:03.627Z,2.23
2017-06-18T18:12:31.145Z,1.93
2017-06-18T18:14:59.450Z,2.00
2017-06-18T18:17:27.737Z,2.27
2017-06-18T18:19:55.280Z,2.50
2017-06-18T18:22:22.799Z,2.57
2017-06-18T18:24:51.123Z,2.40
2017-06-18T18:27:18.652Z,2.40
2017-06-18T18:29:46.179Z,1.77
2017-06-18T18:32:13.719Z,2.20
2017-06-18T18:34:41.235Z,1.87
2017-06-18T18:37:09.567Z,2.10
2017-06-18T18:39:37.086Z,2.13
2017-06-18T18:42:07.746Z,2.17
2017-06-18T18:44:38.111Z,1.60
2017-06-18T18:47:05.686Z,2.00
2017-06-18T18:49:33.292Z,2.57
2017-06-18T18:52:01.679Z,2.47
2017-06-18T18:54:30.038Z,1.80
2017-06-18T18:56:57.559Z,2.33
2017-06-18T18:59:25.103Z,2.10
2017-06-18T19:01:52.655Z,1.90
2017-06-18T19:04:20.194Z,1.80
2017-06-18T19:06:47.715Z,1.73
2017-06-18T19:09:15.256Z,2.17
2017-06-18T19:11:42.779Z,2.33
2017-06-18T19:14:10.392Z,2.57
2017-06-18T19:16:37.919Z,2.50
2017-06-18T19:19:05.447Z,2.60
2017-06-18T19:21:32.991Z,2.50
2017-06-18T19:24:00.515Z,2.80
2017-06-18T19:26:28.060Z,2.43
2017-06-18T19:28:55.590Z,2.97
2017-06-18T19:31:23.138Z,2.97
2017-06-18T19:33:50.667Z,2.40
2017-06-18T19:36:18.211Z,2.63
2017-06-18T19:38:45.733Z,3.07
2017-06-18T19:41:14.054Z,2.77
2017-06-18T19:43:41.579Z,2.97
2017-06-18T19:46:09.097Z,3.03
2017-06-18T19:48:37.405Z,2.23
2017-06-18T19:51:04.930Z,2.73
2017-06-18T19:53:32.475Z,2.77
2017-06-18T19:56:00.001Z,2.63
2017-06-18T19:58:27.542Z,2.80
2017-06-18T20:00:55.063Z,2.50
2017-06-18T20:03:22.607Z,3.57
2017-06-18T20:05:50.164Z,3.50
2017-06-18T20:08:17.734Z,2.67
2017-06-18T20:10:45.276Z,3.20
2017-06-18T20:13:12.798Z,2.37
2017-06-18T20:15:40.342Z,3.10
2017-06-18T20:18:08.632Z,2.03
2017-06-18T20:20:36.178Z,2.87
2017-06-18T20:23:03.698Z,1.87
2017-06-18T20:25:31.240Z,2.20
2017-06-18T20:27:58.767Z,2.23
2017-06-18T20:30:26.314Z,2.20
2017-06-18T20:32:53.845Z,2.33
2017-06-18T20:35:21.391Z,2.60
2017-06-18T20:37:48.934Z,2.70
2017-06-18T20:40:17.228Z,2.27
2017-06-18T20:42:44.770Z,2.07
2017-06-18T20:45:13.064Z,2.30
2017-06-18T20:47:41.368Z,2.27
2017-06-18T20:50:09.659Z,3.47
2017-06-18T20:52:37.203Z,2.60
2017-06-18T20:55:04.726Z,3.03
2017-06-18T20:57:32.250Z,2.47
2017-06-18T20:59:59.794Z,2.47
2017-06-18T21:02:27.319Z,2.20
2017-06-18T21:04:55.623Z,2.20
2017-06-18T21:07:23.146Z,3.23
2017-06-18T21:09:50.694Z,2.57
2017-06-18T21:12:18.218Z,2.70
2017-06-18T21:14:45.776Z,2.40
2017-06-18T21:17:13.296Z,2.53
2017-06-18T21:19:41.586Z,2.57
2017-06-18T21:22:09.126Z,3.23
2017-06-18T21:24:37.410Z,2.67
2017-06-18T21:27:04.951Z,2.67
2017-06-18T21:29:32.474Z,3.20
2017-06-18T21:32:00.014Z,2.97
2017-06-18T21:34:27.542Z,2.80
2017-06-18T21:36:55.084Z,3.00
2017-06-18T21:39:22.607Z,2.40
2017-06-18T21:41:50.936Z,2.83
2017-06-18T21:44:19.223Z,3.00
2017-06-18T21:46:46.783Z,2.63
2017-06-18T21:49:14.330Z,2.30
2017-06-18T21:51:41.854Z,2.53
2017-06-18T21:54:09.391Z,2.40
2017-06-18T21:56:36.919Z,2.80
2017-06-18T21:59:05.228Z,3.17
2017-06-18T22:01:33.510Z,2.73
2017-06-18T22:04:01.824Z,2.53
2017-06-18T22:06:29.351Z,2.67
2017-06-18T22:08:56.907Z,2.80
2017-06-18T22:11:24.430Z,2.97
2017-06-18T22:13:51.949Z,3.73
2017-06-18T22:16:19.482Z,3.00
2017-06-18T22:18:47.003Z,3.40
2017-06-18T22:21:15.311Z,2.60
2017-06-18T22:23:42.854Z,2.70
2017-06-18T22:26:10.399Z,3.17
2017-06-18T22:28:38.686Z,2.90
2017-06-18T22:31:07.007Z,3.00
2017-06-18T22:33:34.531Z,3.10
2017-06-18T22:36:02.051Z,2.93
2017-06-18T22:38:29.590Z,3.50
2017-06-18T22:40:57.111Z,3.50
2017-06-18T22:43:24.654Z,3.27
2017-06-18T22:45:52.178Z,3.20
2017-06-18T22:48:19.715Z,2.80
2017-06-18T22:50:48.003Z,2.77
2017-06-18T22:53:15.551Z,2.63
2017-06-18T22:55:43.077Z,2.90
2017-06-18T22:58:10.594Z,2.80
2017-06-18T23:00:38.138Z,3.10
2017-06-18T23:03:05.659Z,2.40
2017-06-18T23:05:33.970Z,2.43
2017-06-18T23:08:01.496Z,2.70
2017-06-18T23:10:29.800Z,2.60
2017-06-18T23:12:57.326Z,2.20
2017-06-18T23:15:25.632Z,2.63
2017-06-18T23:17:53.151Z,2.07
2017-06-18T23:20:20.703Z,2.03
2017-06-18T23:22:48.228Z,2.60
2017-06-18T23:25:16.515Z,2.70
2017-06-18T23:27:44.055Z,2.53
2017-06-18T23:30:11.575Z,2.30
2017-06-18T23:32:39.115Z,2.30
2017-06-18T23:35:07.404Z,2.53
2017-06-18T23:37:35.707Z,1.90
2017-06-18T23:40:03.227Z,2.50
2017-06-18T23:42:30.780Z,2.20
2017-06-18T23:44:58.298Z,2.40
2017-06-18T23:47:25.822Z,2.13
2017-06-18T23:49:53.357Z,2.50
2017-06-18T23:52:20.875Z,2.50
2017-06-18T23:54:48.418Z,2.17
2017-06-18T23:57:15.934Z,2.53
2017-06-18T23:59:44.242Z,2.10
